sensor_id;sensor_type;location;lat;lon;timestamp;P1;durP1;ratioP1;P2;durP2;ratioP2
2009;SDS011;1008;47.404;8.502;2022-10-23T00:00:10;3.73;;;2.00;;
2009;SDS011;1008;47.404;8.502;2022-10-23T00:02:39;1.70;;;1.60;;
2009;SDS011;1008;47.404;8.502;2022-10-23T00:05:06;3.70;;;2.20;;
2009;SDS011;1008;47.404;8.502;2022-10-23T00:07:36;3.03;;;1.70;;
2009;SDS011;1008;47.404;8.502;2022-10-23T00:10:03;5.27;;;2.30;;
2009;SDS011;1008;47.404;8.502;2022-10-23T00:12:31;3.90;;;2.20;;
2009;SDS011;1008;47.404;8.502;2022-10-23T00:14:57;2.40;;;1.87;;
2009;SDS011;1008;47.404;8.502;2022-10-23T00:17:24;4.30;;;2.20;;
2009;SDS011;1008;47.404;8.502;2022-10-23T00:19:52;3.60;;;2.40;;
2009;SDS011;1008;47.404;8.502;2022-10-23T00:22:19;2.43;;;1.73;;
2009;SDS011;1008;47.404;8.502;2022-10-23T00:24:45;4.23;;;2.17;;
2009;SDS011;1008;47.404;8.502;2022-10-23T00:27:12;2.40;;;1.80;;
2009;SDS011;1008;47.404;8.502;2022-10-23T00:29:39;3.17;;;2.03;;
2009;SDS011;1008;47.404;8.502;2022-10-23T00:32:06;3.20;;;2.10;;
2009;SDS011;1008;47.404;8.502;2022-10-23T00:34:32;2.87;;;2.00;;
2009;SDS011;1008;47.404;8.502;2022-10-23T00:37:00;2.73;;;2.00;;
2009;SDS011;1008;47.404;8.502;2022-10-23T00:39:27;2.27;;;1.87;;
2009;SDS011;1008;47.404;8.502;2022-10-23T00:41:54;6.50;;;2.33;;
2009;SDS011;1008;47.404;8.502;2022-10-23T00:47:36;2.97;;;2.30;;
2009;SDS011;1008;47.404;8.502;2022-10-23T00:50:03;4.13;;;2.37;;
2009;SDS011;1008;47.404;8.502;2022-10-23T00:52:31;2.73;;;2.20;;
2009;SDS011;1008;47.404;8.502;2022-10-23T00:54:59;2.33;;;1.90;;
2009;SDS011;1008;47.404;8.502;2022-10-23T00:57:27;2.57;;;2.00;;
2009;SDS011;1008;47.404;8.502;2022-10-23T00:59:54;2.40;;;1.97;;
2009;SDS011;1008;47.404;8.502;2022-10-23T01:02:21;5.20;;;2.30;;
2009;SDS011;1008;47.404;8.502;2022-10-23T01:04:48;5.00;;;2.30;;
2009;SDS011;1008;47.404;8.502;2022-10-23T01:07:16;2.10;;;1.90;;
2009;SDS011;1008;47.404;8.502;2022-10-23T01:09:50;3.07;;;2.40;;
2009;SDS011;1008;47.404;8.502;2022-10-23T01:12:27;3.33;;;2.77;;
2009;SDS011;1008;47.404;8.502;2022-10-23T01:15:00;4.00;;;2.70;;
2009;SDS011;1008;47.404;8.502;2022-10-23T01:17:33;3.30;;;2.03;;
2009;SDS011;1008;47.404;8.502;2022-10-23T01:20:07;3.13;;;2.10;;
2009;SDS011;1008;47.404;8.502;2022-10-23T01:22:45;3.13;;;2.50;;
2009;SDS011;1008;47.404;8.502;2022-10-23T01:25:25;2.60;;;1.90;;
2009;SDS011;1008;47.404;8.502;2022-10-23T01:28:07;3.10;;;2.20;;
2009;SDS011;1008;47.404;8.502;2022-10-23T01:30:38;3.87;;;2.13;;
2009;SDS011;1008;47.404;8.502;2022-10-23T01:33:08;2.57;;;2.23;;
2009;SDS011;1008;47.404;8.502;2022-10-23T01:35:39;3.57;;;2.17;;
2009;SDS011;1008;47.404;8.502;2022-10-23T01:38:13;2.60;;;2.03;;
2009;SDS011;1008;47.404;8.502;2022-10-23T01:40:46;4.23;;;2.20;;
2009;SDS011;1008;47.404;8.502;2022-10-23T01:43:18;5.10;;;2.63;;
2009;SDS011;1008;47.404;8.502;2022-10-23T01:45:49;3.87;;;2.17;;
2009;SDS011;1008;47.404;8.502;2022-10-23T01:48:20;2.87;;;2.20;;
2009;SDS011;1008;47.404;8.502;2022-10-23T01:50:50;2.53;;;2.20;;
2009;SDS011;1008;47.404;8.502;2022-10-23T01:53:18;2.27;;;1.90;;
2009;SDS011;1008;47.404;8.502;2022-10-23T01:55:47;2.67;;;2.00;;
2009;SDS011;1008;47.404;8.502;2022-10-23T01:58:14;4.00;;;2.20;;
2009;SDS011;1008;47.404;8.502;2022-10-23T02:00:45;3.70;;;2.10;;
2009;SDS011;1008;47.404;8.502;2022-10-23T02:03:13;2.53;;;2.20;;
2009;SDS011;1008;47.404;8.502;2022-10-23T02:05:42;6.73;;;2.73;;
2009;SDS011;1008;47.404;8.502;2022-10-23T02:08:10;3.13;;;2.27;;
2009;SDS011;1008;47.404;8.502;2022-10-23T02:10:39;4.43;;;2.70;;
2009;SDS011;1008;47.404;8.502;2022-10-23T02:13:10;3.73;;;2.90;;
2009;SDS011;1008;47.404;8.502;2022-10-23T02:15:43;2.80;;;2.27;;
2009;SDS011;1008;47.404;8.502;2022-10-23T02:18:14;2.50;;;1.70;;
2009;SDS011;1008;47.404;8.502;2022-10-23T02:20:51;4.47;;;2.60;;
2009;SDS011;1008;47.404;8.502;2022-10-23T02:23:21;3.13;;;2.20;;
2009;SDS011;1008;47.404;8.502;2022-10-23T02:25:55;3.03;;;2.13;;
2009;SDS011;1008;47.404;8.502;2022-10-23T02:28:35;3.00;;;2.53;;
2009;SDS011;1008;47.404;8.502;2022-10-23T02:31:06;2.47;;;1.90;;
2009;SDS011;1008;47.404;8.502;2022-10-23T02:33:38;2.20;;;1.83;;
2009;SDS011;1008;47.404;8.502;2022-10-23T02:36:05;2.50;;;1.80;;
2009;SDS011;1008;47.404;8.502;2022-10-23T02:38:34;2.90;;;2.60;;
2009;SDS011;1008;47.404;8.502;2022-10-23T02:41:07;3.33;;;2.50;;
2009;SDS011;1008;47.404;8.502;2022-10-23T02:43:53;3.97;;;2.40;;
2009;SDS011;1008;47.404;8.502;2022-10-23T02:46:32;3.33;;;2.23;;
2009;SDS011;1008;47.404;8.502;2022-10-23T02:49:11;2.57;;;2.00;;
2009;SDS011;1008;47.404;8.502;2022-10-23T02:51:45;3.97;;;2.40;;
2009;SDS011;1008;47.404;8.502;2022-10-23T02:54:21;2.90;;;2.20;;
2009;SDS011;1008;47.404;8.502;2022-10-23T02:56:57;4.30;;;2.60;;
2009;SDS011;1008;47.404;8.502;2022-10-23T02:59:30;2.67;;;2.17;;
2009;SDS011;1008;47.404;8.502;2022-10-23T03:02:03;3.23;;;2.07;;
2009;SDS011;1008;47.404;8.502;2022-10-23T03:04:34;3.90;;;2.53;;
2009;SDS011;1008;47.404;8.502;2022-10-23T03:07:04;2.50;;;2.23;;
2009;SDS011;1008;47.404;8.502;2022-10-23T03:09:31;4.20;;;2.80;;
2009;SDS011;1008;47.404;8.502;2022-10-23T03:11:58;3.80;;;2.80;;
2009;SDS011;1008;47.404;8.502;2022-10-23T03:14:24;5.53;;;3.17;;
2009;SDS011;1008;47.404;8.502;2022-10-23T03:16:51;4.23;;;3.23;;
2009;SDS011;1008;47.404;8.502;2022-10-23T03:19:19;5.20;;;3.37;;
2009;SDS011;1008;47.404;8.502;2022-10-23T03:21:46;6.60;;;3.60;;
2009;SDS011;1008;47.404;8.502;2022-10-23T03:24:13;7.70;;;3.40;;
2009;SDS011;1008;47.404;8.502;2022-10-23T03:26:39;4.83;;;2.90;;
2009;SDS011;1008;47.404;8.502;2022-10-23T03:29:06;10.50;;;3.80;;
2009;SDS011;1008;47.404;8.502;2022-10-23T03:31:33;4.87;;;3.30;;
2009;SDS011;1008;47.404;8.502;2022-10-23T03:33:59;5.70;;;3.77;;
2009;SDS011;1008;47.404;8.502;2022-10-23T03:36:27;6.20;;;3.80;;
2009;SDS011;1008;47.404;8.502;2022-10-23T03:38:55;7.67;;;4.20;;
2009;SDS011;1008;47.404;8.502;2022-10-23T03:41:24;5.67;;;3.57;;
2009;SDS011;1008;47.404;8.502;2022-10-23T03:43:50;6.40;;;4.17;;
2009;SDS011;1008;47.404;8.502;2022-10-23T03:46:17;5.40;;;3.57;;
2009;SDS011;1008;47.404;8.502;2022-10-23T03:48:44;6.80;;;3.90;;
2009;SDS011;1008;47.404;8.502;2022-10-23T03:51:11;4.03;;;3.20;;
2009;SDS011;1008;47.404;8.502;2022-10-23T03:53:39;4.37;;;2.77;;
2009;SDS011;1008;47.404;8.502;2022-10-23T03:56:05;4.63;;;3.13;;
2009;SDS011;1008;47.404;8.502;2022-10-23T03:58:32;6.43;;;3.30;;
2009;SDS011;1008;47.404;8.502;2022-10-23T04:00:59;4.60;;;3.40;;
2009;SDS011;1008;47.404;8.502;2022-10-23T04:03:26;3.50;;;2.80;;
2009;SDS011;1008;47.404;8.502;2022-10-23T04:05:52;4.57;;;2.97;;
2009;SDS011;1008;47.404;8.502;2022-10-23T04:08:19;4.77;;;3.63;;
2009;SDS011;1008;47.404;8.502;2022-10-23T04:10:47;5.23;;;3.00;;
2009;SDS011;1008;47.404;8.502;2022-10-23T04:13:14;4.83;;;3.30;;
2009;SDS011;1008;47.404;8.502;2022-10-23T04:15:46;4.83;;;3.23;;
2009;SDS011;1008;47.404;8.502;2022-10-23T04:18:13;4.10;;;3.07;;
2009;SDS011;1008;47.404;8.502;2022-10-23T04:20:40;8.70;;;3.13;;
2009;SDS011;1008;47.404;8.502;2022-10-23T04:23:06;5.20;;;3.40;;
2009;SDS011;1008;47.404;8.502;2022-10-23T04:25:33;4.27;;;3.07;;
2009;SDS011;1008;47.404;8.502;2022-10-23T04:28:01;5.13;;;3.30;;
2009;SDS011;1008;47.404;8.502;2022-10-23T04:30:28;4.97;;;3.07;;
2009;SDS011;1008;47.404;8.502;2022-10-23T04:32:55;5.30;;;3.10;;
2009;SDS011;1008;47.404;8.502;2022-10-23T04:35:21;4.57;;;3.20;;
2009;SDS011;1008;47.404;8.502;2022-10-23T04:37:48;5.50;;;3.60;;
2009;SDS011;1008;47.404;8.502;2022-10-23T04:40:15;5.17;;;2.93;;
2009;SDS011;1008;47.404;8.502;2022-10-23T04:42:42;5.07;;;3.33;;
2009;SDS011;1008;47.404;8.502;2022-10-23T04:45:10;5.63;;;3.10;;
2009;SDS011;1008;47.404;8.502;2022-10-23T04:47:37;5.57;;;3.60;;
2009;SDS011;1008;47.404;8.502;2022-10-23T04:50:04;4.83;;;3.30;;
2009;SDS011;1008;47.404;8.502;2022-10-23T04:52:31;4.63;;;3.27;;
2009;SDS011;1008;47.404;8.502;2022-10-23T04:54:58;4.07;;;2.30;;
2009;SDS011;1008;47.404;8.502;2022-10-23T04:57:25;4.20;;;2.93;;
2009;SDS011;1008;47.404;8.502;2022-10-23T04:59:52;8.07;;;3.50;;
2009;SDS011;1008;47.404;8.502;2022-10-23T05:02:20;5.07;;;3.27;;
2009;SDS011;1008;47.404;8.502;2022-10-23T05:04:48;6.43;;;3.20;;
2009;SDS011;1008;47.404;8.502;2022-10-23T05:07:15;3.30;;;2.70;;
2009;SDS011;1008;47.404;8.502;2022-10-23T05:09:42;3.90;;;2.87;;
2009;SDS011;1008;47.404;8.502;2022-10-23T05:12:09;4.60;;;3.30;;
2009;SDS011;1008;47.404;8.502;2022-10-23T05:14:35;5.33;;;3.27;;
2009;SDS011;1008;47.404;8.502;2022-10-23T05:17:03;3.83;;;2.70;;
2009;SDS011;1008;47.404;8.502;2022-10-23T05:19:36;4.03;;;3.20;;
2009;SDS011;1008;47.404;8.502;2022-10-23T05:22:07;3.03;;;2.27;;
2009;SDS011;1008;47.404;8.502;2022-10-23T05:24:35;4.80;;;3.33;;
2009;SDS011;1008;47.404;8.502;2022-10-23T05:27:02;4.07;;;2.80;;
2009;SDS011;1008;47.404;8.502;2022-10-23T05:29:29;4.60;;;2.70;;
2009;SDS011;1008;47.404;8.502;2022-10-23T05:31:56;4.20;;;2.87;;
2009;SDS011;1008;47.404;8.502;2022-10-23T05:34:27;3.50;;;2.20;;
2009;SDS011;1008;47.404;8.502;2022-10-23T05:36:57;5.03;;;3.03;;
2009;SDS011;1008;47.404;8.502;2022-10-23T05:39:24;3.90;;;3.00;;
2009;SDS011;1008;47.404;8.502;2022-10-23T05:41:51;3.70;;;2.53;;
2009;SDS011;1008;47.404;8.502;2022-10-23T05:44:19;4.73;;;3.13;;
2009;SDS011;1008;47.404;8.502;2022-10-23T05:46:45;5.67;;;3.20;;
2009;SDS011;1008;47.404;8.502;2022-10-23T05:49:12;4.33;;;2.70;;
2009;SDS011;1008;47.404;8.502;2022-10-23T05:51:39;3.50;;;3.00;;
2009;SDS011;1008;47.404;8.502;2022-10-23T05:54:07;3.33;;;3.03;;
2009;SDS011;1008;47.404;8.502;2022-10-23T05:56:34;4.57;;;3.37;;
2009;SDS011;1008;47.404;8.502;2022-10-23T05:59:02;4.70;;;3.57;;
2009;SDS011;1008;47.404;8.502;2022-10-23T06:01:29;4.90;;;3.30;;
2009;SDS011;1008;47.404;8.502;2022-10-23T06:03:57;4.40;;;3.33;;
2009;SDS011;1008;47.404;8.502;2022-10-23T06:06:24;5.07;;;3.70;;
2009;SDS011;1008;47.404;8.502;2022-10-23T06:08:50;3.47;;;2.53;;
2009;SDS011;1008;47.404;8.502;2022-10-23T06:11:18;4.10;;;3.70;;
2009;SDS011;1008;47.404;8.502;2022-10-23T06:13:45;4.27;;;3.23;;
2009;SDS011;1008;47.404;8.502;2022-10-23T06:16:15;4.20;;;3.10;;
2009;SDS011;1008;47.404;8.502;2022-10-23T06:18:43;5.67;;;3.27;;
2009;SDS011;1008;47.404;8.502;2022-10-23T06:21:10;5.20;;;2.97;;
2009;SDS011;1008;47.404;8.502;2022-10-23T06:23:37;4.17;;;2.70;;
2009;SDS011;1008;47.404;8.502;2022-10-23T06:26:06;3.83;;;2.80;;
2009;SDS011;1008;47.404;8.502;2022-10-23T06:28:36;3.87;;;2.60;;
2009;SDS011;1008;47.404;8.502;2022-10-23T06:31:03;3.50;;;2.60;;
2009;SDS011;1008;47.404;8.502;2022-10-23T06:33:31;3.80;;;2.60;;
2009;SDS011;1008;47.404;8.502;2022-10-23T06:35:57;4.23;;;2.70;;
2009;SDS011;1008;47.404;8.502;2022-10-23T06:38:24;2.77;;;2.50;;
2009;SDS011;1008;47.404;8.502;2022-10-23T06:40:51;3.97;;;2.33;;
2009;SDS011;1008;47.404;8.502;2022-10-23T06:43:18;4.07;;;2.67;;
2009;SDS011;1008;47.404;8.502;2022-10-23T06:45:46;3.33;;;2.10;;
2009;SDS011;1008;47.404;8.502;2022-10-23T06:48:14;5.57;;;3.10;;
2009;SDS011;1008;47.404;8.502;2022-10-23T06:50:40;3.97;;;2.63;;
2009;SDS011;1008;47.404;8.502;2022-10-23T06:53:07;5.13;;;2.63;;
2009;SDS011;1008;47.404;8.502;2022-10-23T06:55:36;4.90;;;2.70;;
2009;SDS011;1008;47.404;8.502;2022-10-23T06:58:05;4.03;;;2.77;;
2009;SDS011;1008;47.404;8.502;2022-10-23T07:00:34;5.60;;;2.43;;
2009;SDS011;1008;47.404;8.502;2022-10-23T07:03:03;7.30;;;4.10;;
2009;SDS011;1008;47.404;8.502;2022-10-23T07:05:32;4.27;;;3.03;;
2009;SDS011;1008;47.404;8.502;2022-10-23T07:07:59;4.17;;;3.10;;
2009;SDS011;1008;47.404;8.502;2022-10-23T07:10:26;5.77;;;3.10;;
2009;SDS011;1008;47.404;8.502;2022-10-23T07:12:53;4.37;;;2.90;;
2009;SDS011;1008;47.404;8.502;2022-10-23T07:15:24;4.40;;;3.30;;
2009;SDS011;1008;47.404;8.502;2022-10-23T07:17:51;8.47;;;3.97;;
2009;SDS011;1008;47.404;8.502;2022-10-23T07:20:19;6.10;;;4.10;;
2009;SDS011;1008;47.404;8.502;2022-10-23T07:22:49;5.50;;;3.40;;
2009;SDS011;1008;47.404;8.502;2022-10-23T07:25:17;3.83;;;3.07;;
2009;SDS011;1008;47.404;8.502;2022-10-23T07:27:43;3.80;;;2.97;;
2009;SDS011;1008;47.404;8.502;2022-10-23T07:30:11;4.77;;;3.20;;
2009;SDS011;1008;47.404;8.502;2022-10-23T07:32:38;4.67;;;3.27;;
2009;SDS011;1008;47.404;8.502;2022-10-23T07:35:05;5.70;;;3.87;;
2009;SDS011;1008;47.404;8.502;2022-10-23T07:37:34;6.73;;;3.87;;
2009;SDS011;1008;47.404;8.502;2022-10-23T07:40:01;7.23;;;3.77;;
2009;SDS011;1008;47.404;8.502;2022-10-23T07:42:28;4.50;;;2.97;;
2009;SDS011;1008;47.404;8.502;2022-10-23T07:44:55;6.57;;;4.47;;
2009;SDS011;1008;47.404;8.502;2022-10-23T07:47:22;5.33;;;3.47;;
2009;SDS011;1008;47.404;8.502;2022-10-23T07:49:49;5.83;;;3.63;;
2009;SDS011;1008;47.404;8.502;2022-10-23T07:52:16;5.03;;;2.90;;
2009;SDS011;1008;47.404;8.502;2022-10-23T07:54:44;6.87;;;3.80;;
2009;SDS011;1008;47.404;8.502;2022-10-23T07:57:11;7.77;;;4.20;;
2009;SDS011;1008;47.404;8.502;2022-10-23T07:59:37;4.60;;;3.33;;
2009;SDS011;1008;47.404;8.502;2022-10-23T08:02:07;7.60;;;4.23;;
2009;SDS011;1008;47.404;8.502;2022-10-23T08:04:36;8.67;;;4.33;;
2009;SDS011;1008;47.404;8.502;2022-10-23T08:07:03;6.47;;;3.90;;
2009;SDS011;1008;47.404;8.502;2022-10-23T08:09:29;9.27;;;4.03;;
2009;SDS011;1008;47.404;8.502;2022-10-23T08:11:59;7.70;;;4.07;;
2009;SDS011;1008;47.404;8.502;2022-10-23T08:14:26;7.33;;;4.80;;
2009;SDS011;1008;47.404;8.502;2022-10-23T08:16:53;11.20;;;4.53;;
2009;SDS011;1008;47.404;8.502;2022-10-23T08:19:20;8.30;;;3.87;;
2009;SDS011;1008;47.404;8.502;2022-10-23T08:21:47;7.60;;;4.20;;
2009;SDS011;1008;47.404;8.502;2022-10-23T08:24:13;6.33;;;4.30;;
2009;SDS011;1008;47.404;8.502;2022-10-23T08:26:40;9.07;;;5.03;;
2009;SDS011;1008;47.404;8.502;2022-10-23T08:29:08;7.20;;;4.53;;
2009;SDS011;1008;47.404;8.502;2022-10-23T08:31:35;8.03;;;4.23;;
2009;SDS011;1008;47.404;8.502;2022-10-23T08:34:02;6.60;;;4.20;;
2009;SDS011;1008;47.404;8.502;2022-10-23T08:36:28;7.40;;;4.17;;
2009;SDS011;1008;47.404;8.502;2022-10-23T08:38:55;8.73;;;4.40;;
2009;SDS011;1008;47.404;8.502;2022-10-23T08:41:24;8.23;;;4.70;;
2009;SDS011;1008;47.404;8.502;2022-10-23T08:43:55;7.20;;;4.73;;
2009;SDS011;1008;47.404;8.502;2022-10-23T08:46:30;8.63;;;4.73;;
2009;SDS011;1008;47.404;8.502;2022-10-23T08:49:08;10.70;;;4.50;;
2009;SDS011;1008;47.404;8.502;2022-10-23T08:51:46;9.20;;;5.23;;
2009;SDS011;1008;47.404;8.502;2022-10-23T08:54:15;10.20;;;5.00;;
2009;SDS011;1008;47.404;8.502;2022-10-23T08:56:47;8.17;;;5.53;;
2009;SDS011;1008;47.404;8.502;2022-10-23T08:59:18;7.37;;;4.80;;
2009;SDS011;1008;47.404;8.502;2022-10-23T09:01:54;7.73;;;5.10;;
2009;SDS011;1008;47.404;8.502;2022-10-23T09:04:25;8.53;;;4.97;;
2009;SDS011;1008;47.404;8.502;2022-10-23T09:06:54;11.27;;;6.00;;
2009;SDS011;1008;47.404;8.502;2022-10-23T09:09:35;12.60;;;5.60;;
2009;SDS011;1008;47.404;8.502;2022-10-23T09:12:19;5.43;;;3.70;;
2009;SDS011;1008;47.404;8.502;2022-10-23T09:17:44;9.33;;;5.50;;
2009;SDS011;1008;47.404;8.502;2022-10-23T09:20:15;21.13;;;11.80;;
2009;SDS011;1008;47.404;8.502;2022-10-23T09:22:45;11.23;;;5.30;;
2009;SDS011;1008;47.404;8.502;2022-10-23T09:25:18;10.73;;;6.30;;
2009;SDS011;1008;47.404;8.502;2022-10-23T09:27:47;7.07;;;4.57;;
2009;SDS011;1008;47.404;8.502;2022-10-23T09:30:27;9.53;;;5.50;;
2009;SDS011;1008;47.404;8.502;2022-10-23T09:32:58;8.63;;;4.80;;
2009;SDS011;1008;47.404;8.502;2022-10-23T09:35:26;8.47;;;5.20;;
2009;SDS011;1008;47.404;8.502;2022-10-23T09:37:54;8.20;;;5.53;;
2009;SDS011;1008;47.404;8.502;2022-10-23T09:40:24;8.00;;;4.60;;
2009;SDS011;1008;47.404;8.502;2022-10-23T09:42:58;7.97;;;5.83;;
2009;SDS011;1008;47.404;8.502;2022-10-23T09:45:28;8.53;;;4.60;;
2009;SDS011;1008;47.404;8.502;2022-10-23T09:48:05;8.20;;;4.70;;
2009;SDS011;1008;47.404;8.502;2022-10-23T09:50:36;7.03;;;4.13;;
2009;SDS011;1008;47.404;8.502;2022-10-23T09:53:08;5.23;;;3.60;;
2009;SDS011;1008;47.404;8.502;2022-10-23T09:55:41;21.00;;;4.20;;
2009;SDS011;1008;47.404;8.502;2022-10-23T09:58:16;5.77;;;4.40;;
2009;SDS011;1008;47.404;8.502;2022-10-23T10:00:46;3.80;;;3.20;;
2009;SDS011;1008;47.404;8.502;2022-10-23T10:03:18;7.23;;;4.00;;
2009;SDS011;1008;47.404;8.502;2022-10-23T10:05:52;4.90;;;3.40;;
2009;SDS011;1008;47.404;8.502;2022-10-23T10:08:21;6.93;;;4.50;;
2009;SDS011;1008;47.404;8.502;2022-10-23T10:10:54;5.53;;;3.80;;
2009;SDS011;1008;47.404;8.502;2022-10-23T10:13:31;6.43;;;3.90;;
2009;SDS011;1008;47.404;8.502;2022-10-23T10:16:20;5.50;;;3.63;;
2009;SDS011;1008;47.404;8.502;2022-10-23T10:18:55;6.80;;;3.50;;
2009;SDS011;1008;47.404;8.502;2022-10-23T10:21:28;8.03;;;5.17;;
2009;SDS011;1008;47.404;8.502;2022-10-23T10:24:04;7.63;;;4.77;;
2009;SDS011;1008;47.404;8.502;2022-10-23T10:26:38;6.13;;;4.43;;
2009;SDS011;1008;47.404;8.502;2022-10-23T10:29:20;7.63;;;5.10;;
2009;SDS011;1008;47.404;8.502;2022-10-23T10:31:58;7.47;;;5.00;;
2009;SDS011;1008;47.404;8.502;2022-10-23T10:34:35;7.90;;;5.03;;
2009;SDS011;1008;47.404;8.502;2022-10-23T10:37:11;6.77;;;4.20;;
2009;SDS011;1008;47.404;8.502;2022-10-23T10:39:46;6.20;;;4.17;;
2009;SDS011;1008;47.404;8.502;2022-10-23T10:42:23;5.47;;;4.10;;
2009;SDS011;1008;47.404;8.502;2022-10-23T10:45:18;4.87;;;4.17;;
2009;SDS011;1008;47.404;8.502;2022-10-23T10:50:46;6.30;;;4.13;;
2009;SDS011;1008;47.404;8.502;2022-10-23T10:53:19;5.53;;;3.90;;
2009;SDS011;1008;47.404;8.502;2022-10-23T10:55:51;5.23;;;4.13;;
2009;SDS011;1008;47.404;8.502;2022-10-23T10:58:22;5.60;;;3.90;;
2009;SDS011;1008;47.404;8.502;2022-10-23T11:00:56;5.43;;;4.40;;
2009;SDS011;1008;47.404;8.502;2022-10-23T11:03:27;5.23;;;4.07;;
2009;SDS011;1008;47.404;8.502;2022-10-23T11:06:01;5.40;;;3.63;;
2009;SDS011;1008;47.404;8.502;2022-10-23T11:08:33;5.07;;;3.67;;
2009;SDS011;1008;47.404;8.502;2022-10-23T11:11:03;4.30;;;3.27;;
2009;SDS011;1008;47.404;8.502;2022-10-23T11:13:33;4.60;;;3.70;;
2009;SDS011;1008;47.404;8.502;2022-10-23T11:16:03;5.80;;;3.97;;
2009;SDS011;1008;47.404;8.502;2022-10-23T11:18:39;5.17;;;3.27;;
2009;SDS011;1008;47.404;8.502;2022-10-23T11:21:13;4.77;;;3.07;;
2009;SDS011;1008;47.404;8.502;2022-10-23T11:23:55;6.60;;;3.23;;
2009;SDS011;1008;47.404;8.502;2022-10-23T11:26:39;6.90;;;3.57;;
2009;SDS011;1008;47.404;8.502;2022-10-23T11:29:21;3.20;;;2.80;;
2009;SDS011;1008;47.404;8.502;2022-10-23T11:32:20;3.40;;;2.57;;
2009;SDS011;1008;47.404;8.502;2022-10-23T11:37:57;3.50;;;2.77;;
2009;SDS011;1008;47.404;8.502;2022-10-23T11:40:25;5.00;;;3.30;;
2009;SDS011;1008;47.404;8.502;2022-10-23T11:42:52;7.03;;;3.77;;
2009;SDS011;1008;47.404;8.502;2022-10-23T11:45:26;4.50;;;2.77;;
2009;SDS011;1008;47.404;8.502;2022-10-23T11:47:55;4.30;;;2.77;;
2009;SDS011;1008;47.404;8.502;2022-10-23T11:50:25;3.03;;;2.37;;
2009;SDS011;1008;47.404;8.502;2022-10-23T11:52:55;3.43;;;2.70;;
2009;SDS011;1008;47.404;8.502;2022-10-23T11:55:29;3.37;;;2.73;;
2009;SDS011;1008;47.404;8.502;2022-10-23T11:58:17;3.07;;;2.30;;
2009;SDS011;1008;47.404;8.502;2022-10-23T12:00:55;5.40;;;2.43;;
2009;SDS011;1008;47.404;8.502;2022-10-23T12:03:27;3.37;;;2.67;;
2009;SDS011;1008;47.404;8.502;2022-10-23T12:06:01;4.03;;;2.87;;
2009;SDS011;1008;47.404;8.502;2022-10-23T12:08:32;3.33;;;3.03;;
2009;SDS011;1008;47.404;8.502;2022-10-23T12:11:03;4.90;;;3.47;;
2009;SDS011;1008;47.404;8.502;2022-10-23T12:13:41;5.30;;;2.70;;
2009;SDS011;1008;47.404;8.502;2022-10-23T12:16:10;3.87;;;2.77;;
2009;SDS011;1008;47.404;8.502;2022-10-23T12:18:43;3.30;;;2.53;;
2009;SDS011;1008;47.404;8.502;2022-10-23T12:21:16;2.87;;;2.40;;
2009;SDS011;1008;47.404;8.502;2022-10-23T12:26:49;2.25;;;2.05;;
2009;SDS011;1008;47.404;8.502;2022-10-23T12:29:30;4.23;;;2.97;;
2009;SDS011;1008;47.404;8.502;2022-10-23T12:32:11;2.20;;;1.80;;
2009;SDS011;1008;47.404;8.502;2022-10-23T12:34:55;2.53;;;2.00;;
2009;SDS011;1008;47.404;8.502;2022-10-23T12:37:39;2.40;;;2.07;;
2009;SDS011;1008;47.404;8.502;2022-10-23T12:40:17;3.33;;;2.10;;
2009;SDS011;1008;47.404;8.502;2022-10-23T12:42:48;3.60;;;1.70;;
2009;SDS011;1008;47.404;8.502;2022-10-23T12:45:18;2.87;;;1.90;;
2009;SDS011;1008;47.404;8.502;2022-10-23T12:47:48;2.00;;;1.60;;
2009;SDS011;1008;47.404;8.502;2022-10-23T12:50:16;1.63;;;1.50;;
2009;SDS011;1008;47.404;8.502;2022-10-23T12:52:49;3.63;;;1.50;;
2009;SDS011;1008;47.404;8.502;2022-10-23T12:55:18;1.93;;;1.77;;
2009;SDS011;1008;47.404;8.502;2022-10-23T12:57:45;2.17;;;1.90;;
2009;SDS011;1008;47.404;8.502;2022-10-23T13:00:16;1.70;;;1.60;;
2009;SDS011;1008;47.404;8.502;2022-10-23T13:02:45;2.03;;;1.80;;
2009;SDS011;1008;47.404;8.502;2022-10-23T13:05:22;3.20;;;2.27;;
2009;SDS011;1008;47.404;8.502;2022-10-23T13:07:50;2.83;;;2.10;;
2009;SDS011;1008;47.404;8.502;2022-10-23T13:10:19;4.57;;;2.03;;
2009;SDS011;1008;47.404;8.502;2022-10-23T13:12:49;2.30;;;2.10;;
2009;SDS011;1008;47.404;8.502;2022-10-23T13:15:20;3.60;;;2.90;;
2009;SDS011;1008;47.404;8.502;2022-10-23T13:17:58;3.93;;;2.70;;
2009;SDS011;1008;47.404;8.502;2022-10-23T13:20:27;3.13;;;2.53;;
2009;SDS011;1008;47.404;8.502;2022-10-23T13:22:57;4.20;;;2.63;;
2009;SDS011;1008;47.404;8.502;2022-10-23T13:25:27;3.53;;;3.13;;
2009;SDS011;1008;47.404;8.502;2022-10-23T13:28:04;3.50;;;2.50;;
2009;SDS011;1008;47.404;8.502;2022-10-23T13:30:39;4.27;;;2.60;;
2009;SDS011;1008;47.404;8.502;2022-10-23T13:33:12;4.83;;;2.77;;
2009;SDS011;1008;47.404;8.502;2022-10-23T13:35:40;3.60;;;2.73;;
2009;SDS011;1008;47.404;8.502;2022-10-23T13:38:07;3.67;;;2.47;;
2009;SDS011;1008;47.404;8.502;2022-10-23T13:40:36;3.13;;;2.53;;
2009;SDS011;1008;47.404;8.502;2022-10-23T13:43:04;3.23;;;2.33;;
2009;SDS011;1008;47.404;8.502;2022-10-23T13:45:39;4.73;;;3.13;;
2009;SDS011;1008;47.404;8.502;2022-10-23T13:48:07;3.07;;;2.37;;
2009;SDS011;1008;47.404;8.502;2022-10-23T13:50:38;2.77;;;2.40;;
2009;SDS011;1008;47.404;8.502;2022-10-23T13:53:07;4.13;;;2.77;;
2009;SDS011;1008;47.404;8.502;2022-10-23T13:55:35;2.53;;;2.33;;
2009;SDS011;1008;47.404;8.502;2022-10-23T13:58:04;3.07;;;2.60;;
2009;SDS011;1008;47.404;8.502;2022-10-23T14:00:31;2.80;;;2.50;;
2009;SDS011;1008;47.404;8.502;2022-10-23T14:02:57;3.07;;;2.40;;
2009;SDS011;1008;47.404;8.502;2022-10-23T14:05:24;3.67;;;2.60;;
2009;SDS011;1008;47.404;8.502;2022-10-23T14:07:51;3.03;;;2.23;;
2009;SDS011;1008;47.404;8.502;2022-10-23T14:10:18;3.10;;;2.67;;
2009;SDS011;1008;47.404;8.502;2022-10-23T14:12:46;3.53;;;2.57;;
2009;SDS011;1008;47.404;8.502;2022-10-23T14:15:17;2.73;;;2.40;;
2009;SDS011;1008;47.404;8.502;2022-10-23T14:17:44;3.13;;;2.37;;
2009;SDS011;1008;47.404;8.502;2022-10-23T14:20:11;3.27;;;1.80;;
2009;SDS011;1008;47.404;8.502;2022-10-23T14:22:38;3.77;;;2.67;;
2009;SDS011;1008;47.404;8.502;2022-10-23T14:25:04;2.07;;;1.87;;
2009;SDS011;1008;47.404;8.502;2022-10-23T14:27:31;2.67;;;2.20;;
2009;SDS011;1008;47.404;8.502;2022-10-23T14:29:59;3.47;;;2.40;;
2009;SDS011;1008;47.404;8.502;2022-10-23T14:32:28;3.90;;;2.70;;
2009;SDS011;1008;47.404;8.502;2022-10-23T14:34:55;3.90;;;2.90;;
2009;SDS011;1008;47.404;8.502;2022-10-23T14:37:22;3.50;;;2.63;;
2009;SDS011;1008;47.404;8.502;2022-10-23T14:39:49;4.40;;;3.00;;
2009;SDS011;1008;47.404;8.502;2022-10-23T14:42:16;3.57;;;2.43;;
2009;SDS011;1008;47.404;8.502;2022-10-23T14:44:42;2.80;;;2.60;;
2009;SDS011;1008;47.404;8.502;2022-10-23T14:47:10;2.60;;;2.30;;
2009;SDS011;1008;47.404;8.502;2022-10-23T14:49:37;4.03;;;2.60;;
2009;SDS011;1008;47.404;8.502;2022-10-23T14:52:05;3.93;;;2.70;;
2009;SDS011;1008;47.404;8.502;2022-10-23T14:54:31;3.87;;;2.50;;
2009;SDS011;1008;47.404;8.502;2022-10-23T14:57:00;3.13;;;2.50;;
2009;SDS011;1008;47.404;8.502;2022-10-23T14:59:27;3.20;;;2.10;;
2009;SDS011;1008;47.404;8.502;2022-10-23T15:01:54;5.20;;;2.70;;
2009;SDS011;1008;47.404;8.502;2022-10-23T15:04:22;3.80;;;2.40;;
2009;SDS011;1008;47.404;8.502;2022-10-23T15:06:49;3.23;;;2.40;;
2009;SDS011;1008;47.404;8.502;2022-10-23T15:09:16;3.73;;;2.83;;
2009;SDS011;1008;47.404;8.502;2022-10-23T15:11:43;3.90;;;2.73;;
2009;SDS011;1008;47.404;8.502;2022-10-23T15:14:10;2.43;;;2.07;;
2009;SDS011;1008;47.404;8.502;2022-10-23T15:16:37;3.10;;;2.27;;
2009;SDS011;1008;47.404;8.502;2022-10-23T15:19:06;4.83;;;2.60;;
2009;SDS011;1008;47.404;8.502;2022-10-23T15:21:35;3.30;;;2.80;;
2009;SDS011;1008;47.404;8.502;2022-10-23T15:24:02;2.43;;;2.23;;
2009;SDS011;1008;47.404;8.502;2022-10-23T15:26:30;3.30;;;2.40;;
2009;SDS011;1008;47.404;8.502;2022-10-23T15:28:58;4.07;;;2.80;;
2009;SDS011;1008;47.404;8.502;2022-10-23T15:31:39;5.03;;;3.50;;
2009;SDS011;1008;47.404;8.502;2022-10-23T15:34:09;4.17;;;3.33;;
2009;SDS011;1008;47.404;8.502;2022-10-23T15:36:39;4.20;;;2.70;;
2009;SDS011;1008;47.404;8.502;2022-10-23T15:39:07;3.23;;;2.47;;
2009;SDS011;1008;47.404;8.502;2022-10-23T15:41:35;6.00;;;4.50;;
2009;SDS011;1008;47.404;8.502;2022-10-23T15:44:04;4.10;;;2.83;;
2009;SDS011;1008;47.404;8.502;2022-10-23T15:46:32;6.50;;;2.63;;